sensor_id;sensor_type;location;lat;lon;timestamp;P1;durP1;ratioP1;P2;durP2;ratioP2
52894;SDS011;38759;53.396;6.722;2024-03-06T00:02:25;13.93;;;8.05;;
52894;SDS011;38759;53.396;6.722;2024-03-06T00:04:51;17.25;;;8.48;;
52894;SDS011;38759;53.396;6.722;2024-03-06T00:07:17;18.10;;;8.25;;
52894;SDS011;38759;53.396;6.722;2024-03-06T00:09:42;15.55;;;8.90;;
52894;SDS011;38759;53.396;6.722;2024-03-06T00:12:08;20.02;;;9.65;;
52894;SDS011;38759;53.396;6.722;2024-03-06T00:14:34;17.02;;;8.65;;
52894;SDS011;38759;53.396;6.722;2024-03-06T00:17:01;18.42;;;8.20;;
52894;SDS011;38759;53.396;6.722;2024-03-06T00:19:31;19.13;;;8.70;;
52894;SDS011;38759;53.396;6.722;2024-03-06T00:21:57;18.15;;;9.30;;
52894;SDS011;38759;53.396;6.722;2024-03-06T00:24:24;18.38;;;9.40;;
52894;SDS011;38759;53.396;6.722;2024-03-06T00:26:50;20.33;;;9.57;;
52894;SDS011;38759;53.396;6.722;2024-03-06T00:29:16;16.75;;;8.57;;
52894;SDS011;38759;53.396;6.722;2024-03-06T00:31:42;19.02;;;10.43;;
52894;SDS011;38759;53.396;6.722;2024-03-06T00:34:09;17.23;;;9.30;;
52894;SDS011;38759;53.396;6.722;2024-03-06T00:36:41;18.58;;;9.93;;
52894;SDS011;38759;53.396;6.722;2024-03-06T00:39:08;20.23;;;10.15;;
52894;SDS011;38759;53.396;6.722;2024-03-06T00:41:34;19.17;;;9.52;;
52894;SDS011;38759;53.396;6.722;2024-03-06T00:44:00;19.10;;;10.13;;
52894;SDS011;38759;53.396;6.722;2024-03-06T00:46:26;17.33;;;9.63;;
52894;SDS011;38759;53.396;6.722;2024-03-06T00:48:52;18.90;;;9.43;;
52894;SDS011;38759;53.396;6.722;2024-03-06T00:51:18;19.60;;;9.55;;
52894;SDS011;38759;53.396;6.722;2024-03-06T00:53:44;18.15;;;9.30;;
52894;SDS011;38759;53.396;6.722;2024-03-06T00:56:10;21.90;;;9.40;;
52894;SDS011;38759;53.396;6.722;2024-03-06T00:58:35;21.27;;;9.68;;
52894;SDS011;38759;53.396;6.722;2024-03-06T01:01:01;22.90;;;10.68;;
52894;SDS011;38759;53.396;6.722;2024-03-06T01:03:27;18.15;;;9.18;;
52894;SDS011;38759;53.396;6.722;2024-03-06T01:05:53;17.20;;;9.85;;
52894;SDS011;38759;53.396;6.722;2024-03-06T01:08:20;22.40;;;10.38;;
52894;SDS011;38759;53.396;6.722;2024-03-06T01:10:50;21.88;;;10.93;;
52894;SDS011;38759;53.396;6.722;2024-03-06T01:13:17;23.02;;;10.63;;
52894;SDS011;38759;53.396;6.722;2024-03-06T01:15:45;17.42;;;9.10;;
52894;SDS011;38759;53.396;6.722;2024-03-06T01:18:11;18.48;;;9.40;;
52894;SDS011;38759;53.396;6.722;2024-03-06T01:20:37;23.02;;;10.23;;
52894;SDS011;38759;53.396;6.722;2024-03-06T01:23:03;23.52;;;9.52;;
52894;SDS011;38759;53.396;6.722;2024-03-06T01:25:29;19.80;;;10.48;;
52894;SDS011;38759;53.396;6.722;2024-03-06T01:27:55;20.83;;;11.07;;
52894;SDS011;38759;53.396;6.722;2024-03-06T01:30:20;22.13;;;10.15;;
52894;SDS011;38759;53.396;6.722;2024-03-06T01:32:46;19.00;;;10.25;;
52894;SDS011;38759;53.396;6.722;2024-03-06T01:35:12;21.83;;;10.13;;
52894;SDS011;38759;53.396;6.722;2024-03-06T01:37:37;23.20;;;10.48;;
52894;SDS011;38759;53.396;6.722;2024-03-06T01:40:03;22.52;;;11.38;;
52894;SDS011;38759;53.396;6.722;2024-03-06T01:42:30;21.15;;;11.15;;
52894;SDS011;38759;53.396;6.722;2024-03-06T01:44:56;21.35;;;11.10;;
52894;SDS011;38759;53.396;6.722;2024-03-06T01:47:22;23.40;;;11.25;;
52894;SDS011;38759;53.396;6.722;2024-03-06T01:49:47;19.08;;;10.85;;
52894;SDS011;38759;53.396;6.722;2024-03-06T01:52:14;20.90;;;10.82;;
52894;SDS011;38759;53.396;6.722;2024-03-06T01:54:41;22.42;;;10.52;;
52894;SDS011;38759;53.396;6.722;2024-03-06T01:57:07;21.38;;;11.05;;
52894;SDS011;38759;53.396;6.722;2024-03-06T01:59:35;25.13;;;11.18;;
52894;SDS011;38759;53.396;6.722;2024-03-06T02:02:02;25.70;;;11.55;;
52894;SDS011;38759;53.396;6.722;2024-03-06T02:04:28;22.45;;;10.98;;
52894;SDS011;38759;53.396;6.722;2024-03-06T02:06:54;20.48;;;10.73;;
52894;SDS011;38759;53.396;6.722;2024-03-06T02:09:20;22.17;;;11.13;;
52894;SDS011;38759;53.396;6.722;2024-03-06T02:11:46;23.23;;;11.98;;
52894;SDS011;38759;53.396;6.722;2024-03-06T02:14:12;25.05;;;12.05;;
52894;SDS011;38759;53.396;6.722;2024-03-06T02:16:38;26.38;;;12.50;;
52894;SDS011;38759;53.396;6.722;2024-03-06T02:19:07;22.38;;;11.75;;
52894;SDS011;38759;53.396;6.722;2024-03-06T02:21:33;25.73;;;12.82;;
52894;SDS011;38759;53.396;6.722;2024-03-06T02:24:00;29.83;;;12.63;;
52894;SDS011;38759;53.396;6.722;2024-03-06T02:26:26;18.92;;;11.88;;
52894;SDS011;38759;53.396;6.722;2024-03-06T02:28:52;27.77;;;12.73;;
52894;SDS011;38759;53.396;6.722;2024-03-06T02:31:19;28.35;;;13.40;;
52894;SDS011;38759;53.396;6.722;2024-03-06T02:33:46;23.20;;;12.73;;
52894;SDS011;38759;53.396;6.722;2024-03-06T02:36:13;19.70;;;11.93;;
52894;SDS011;38759;53.396;6.722;2024-03-06T02:38:39;22.45;;;12.43;;
52894;SDS011;38759;53.396;6.722;2024-03-06T02:41:05;28.30;;;12.18;;
52894;SDS011;38759;53.396;6.722;2024-03-06T02:43:32;21.23;;;12.38;;
52894;SDS011;38759;53.396;6.722;2024-03-06T02:45:58;25.08;;;12.23;;
52894;SDS011;38759;53.396;6.722;2024-03-06T02:48:24;24.98;;;12.00;;
52894;SDS011;38759;53.396;6.722;2024-03-06T02:50:50;19.95;;;11.35;;
52894;SDS011;38759;53.396;6.722;2024-03-06T02:53:15;25.92;;;12.48;;
52894;SDS011;38759;53.396;6.722;2024-03-06T02:55:41;23.58;;;12.75;;
52894;SDS011;38759;53.396;6.722;2024-03-06T02:58:07;22.13;;;12.40;;
52894;SDS011;38759;53.396;6.722;2024-03-06T03:00:32;23.75;;;11.98;;
52894;SDS011;38759;53.396;6.722;2024-03-06T03:02:58;24.40;;;12.23;;
52894;SDS011;38759;53.396;6.722;2024-03-06T03:05:24;23.17;;;11.95;;
52894;SDS011;38759;53.396;6.722;2024-03-06T03:07:50;25.85;;;12.55;;
52894;SDS011;38759;53.396;6.722;2024-03-06T03:10:16;21.17;;;12.05;;
52894;SDS011;38759;53.396;6.722;2024-03-06T03:12:42;20.38;;;11.95;;
52894;SDS011;38759;53.396;6.722;2024-03-06T03:15:08;23.13;;;11.25;;
52894;SDS011;38759;53.396;6.722;2024-03-06T03:17:34;25.20;;;11.98;;
52894;SDS011;38759;53.396;6.722;2024-03-06T03:20:01;25.25;;;12.30;;
52894;SDS011;38759;53.396;6.722;2024-03-06T03:22:39;21.48;;;12.98;;
52894;SDS011;38759;53.396;6.722;2024-03-06T03:25:08;24.17;;;12.27;;
52894;SDS011;38759;53.396;6.722;2024-03-06T03:27:36;23.27;;;12.40;;
52894;SDS011;38759;53.396;6.722;2024-03-06T03:30:03;22.80;;;13.10;;
52894;SDS011;38759;53.396;6.722;2024-03-06T03:32:30;19.83;;;12.27;;
52894;SDS011;38759;53.396;6.722;2024-03-06T03:34:55;22.38;;;12.05;;
52894;SDS011;38759;53.396;6.722;2024-03-06T03:37:21;25.02;;;12.52;;
52894;SDS011;38759;53.396;6.722;2024-03-06T03:39:47;25.02;;;12.60;;
52894;SDS011;38759;53.396;6.722;2024-03-06T03:42:12;21.02;;;11.85;;
52894;SDS011;38759;53.396;6.722;2024-03-06T03:44:38;24.10;;;12.50;;
52894;SDS011;38759;53.396;6.722;2024-03-06T03:47:04;25.08;;;12.80;;
52894;SDS011;38759;53.396;6.722;2024-03-06T03:49:30;21.58;;;12.35;;
52894;SDS011;38759;53.396;6.722;2024-03-06T03:51:56;25.40;;;13.73;;
52894;SDS011;38759;53.396;6.722;2024-03-06T03:54:22;24.17;;;13.00;;
52894;SDS011;38759;53.396;6.722;2024-03-06T03:56:47;26.00;;;12.68;;
52894;SDS011;38759;53.396;6.722;2024-03-06T03:59:13;24.75;;;13.43;;
52894;SDS011;38759;53.396;6.722;2024-03-06T04:01:39;22.90;;;13.55;;
52894;SDS011;38759;53.396;6.722;2024-03-06T04:04:05;23.35;;;13.93;;
52894;SDS011;38759;53.396;6.722;2024-03-06T04:06:33;22.75;;;12.70;;
52894;SDS011;38759;53.396;6.722;2024-03-06T04:08:59;24.00;;;12.60;;
52894;SDS011;38759;53.396;6.722;2024-03-06T04:11:25;24.77;;;12.57;;
52894;SDS011;38759;53.396;6.722;2024-03-06T04:13:51;28.67;;;12.82;;
52894;SDS011;38759;53.396;6.722;2024-03-06T04:16:17;23.67;;;13.10;;
52894;SDS011;38759;53.396;6.722;2024-03-06T04:18:43;25.30;;;13.10;;
52894;SDS011;38759;53.396;6.722;2024-03-06T04:21:10;25.63;;;12.80;;
52894;SDS011;38759;53.396;6.722;2024-03-06T04:23:36;25.63;;;12.63;;
52894;SDS011;38759;53.396;6.722;2024-03-06T04:26:02;24.55;;;12.68;;
52894;SDS011;38759;53.396;6.722;2024-03-06T04:28:28;22.70;;;12.30;;
52894;SDS011;38759;53.396;6.722;2024-03-06T04:30:55;24.10;;;12.85;;
52894;SDS011;38759;53.396;6.722;2024-03-06T04:33:21;27.35;;;14.13;;
52894;SDS011;38759;53.396;6.722;2024-03-06T04:35:47;27.92;;;13.65;;
52894;SDS011;38759;53.396;6.722;2024-03-06T04:38:12;26.75;;;13.70;;
52894;SDS011;38759;53.396;6.722;2024-03-06T04:40:39;23.00;;;13.75;;
52894;SDS011;38759;53.396;6.722;2024-03-06T04:43:04;24.92;;;13.52;;
52894;SDS011;38759;53.396;6.722;2024-03-06T04:45:31;23.33;;;13.38;;
52894;SDS011;38759;53.396;6.722;2024-03-06T04:47:57;27.08;;;12.73;;
52894;SDS011;38759;53.396;6.722;2024-03-06T04:50:23;20.50;;;11.45;;
52894;SDS011;38759;53.396;6.722;2024-03-06T04:52:49;27.40;;;12.75;;
52894;SDS011;38759;53.396;6.722;2024-03-06T04:55:15;23.02;;;11.70;;
52894;SDS011;38759;53.396;6.722;2024-03-06T04:57:45;22.60;;;12.65;;
52894;SDS011;38759;53.396;6.722;2024-03-06T05:00:11;22.67;;;11.80;;
52894;SDS011;38759;53.396;6.722;2024-03-06T05:02:40;23.55;;;12.73;;
52894;SDS011;38759;53.396;6.722;2024-03-06T05:05:07;24.90;;;12.50;;
52894;SDS011;38759;53.396;6.722;2024-03-06T05:07:35;25.55;;;12.45;;
52894;SDS011;38759;53.396;6.722;2024-03-06T05:10:01;22.95;;;12.75;;
52894;SDS011;38759;53.396;6.722;2024-03-06T05:12:27;23.58;;;13.00;;
52894;SDS011;38759;53.396;6.722;2024-03-06T05:14:53;23.98;;;13.45;;
52894;SDS011;38759;53.396;6.722;2024-03-06T05:17:20;23.42;;;13.07;;
52894;SDS011;38759;53.396;6.722;2024-03-06T05:19:46;20.30;;;11.90;;
52894;SDS011;38759;53.396;6.722;2024-03-06T05:22:14;23.15;;;12.85;;
52894;SDS011;38759;53.396;6.722;2024-03-06T05:24:40;21.40;;;12.48;;
52894;SDS011;38759;53.396;6.722;2024-03-06T05:27:07;26.88;;;13.25;;
52894;SDS011;38759;53.396;6.722;2024-03-06T05:29:33;29.85;;;12.32;;
52894;SDS011;38759;53.396;6.722;2024-03-06T05:31:59;27.08;;;13.68;;
52894;SDS011;38759;53.396;6.722;2024-03-06T05:34:24;21.85;;;12.95;;
52894;SDS011;38759;53.396;6.722;2024-03-06T05:36:50;20.73;;;11.98;;
52894;SDS011;38759;53.396;6.722;2024-03-06T05:39:16;22.02;;;11.50;;
52894;SDS011;38759;53.396;6.722;2024-03-06T05:41:43;23.80;;;13.10;;
52894;SDS011;38759;53.396;6.722;2024-03-06T05:44:09;23.42;;;12.65;;
52894;SDS011;38759;53.396;6.722;2024-03-06T05:46:35;27.80;;;13.18;;
52894;SDS011;38759;53.396;6.722;2024-03-06T05:49:01;27.75;;;13.02;;
52894;SDS011;38759;53.396;6.722;2024-03-06T05:51:28;28.95;;;12.57;;
52894;SDS011;38759;53.396;6.722;2024-03-06T05:53:54;27.02;;;11.98;;
52894;SDS011;38759;53.396;6.722;2024-03-06T05:56:19;27.13;;;13.35;;
52894;SDS011;38759;53.396;6.722;2024-03-06T05:58:45;28.10;;;12.80;;
52894;SDS011;38759;53.396;6.722;2024-03-06T06:01:17;25.50;;;12.68;;
52894;SDS011;38759;53.396;6.722;2024-03-06T06:03:47;23.05;;;13.25;;
52894;SDS011;38759;53.396;6.722;2024-03-06T06:06:16;27.08;;;12.70;;
52894;SDS011;38759;53.396;6.722;2024-03-06T06:08:44;24.73;;;12.32;;
52894;SDS011;38759;53.396;6.722;2024-03-06T06:11:10;26.27;;;12.43;;
52894;SDS011;38759;53.396;6.722;2024-03-06T06:13:36;33.42;;;12.85;;
52894;SDS011;38759;53.396;6.722;2024-03-06T06:16:04;20.92;;;11.73;;
52894;SDS011;38759;53.396;6.722;2024-03-06T06:18:30;24.25;;;11.45;;
52894;SDS011;38759;53.396;6.722;2024-03-06T06:20:57;25.92;;;11.45;;
52894;SDS011;38759;53.396;6.722;2024-03-06T06:23:23;20.67;;;10.93;;
52894;SDS011;38759;53.396;6.722;2024-03-06T06:25:49;24.30;;;10.95;;
52894;SDS011;38759;53.396;6.722;2024-03-06T06:28:15;22.88;;;11.02;;
52894;SDS011;38759;53.396;6.722;2024-03-06T06:30:40;24.60;;;10.90;;
52894;SDS011;38759;53.396;6.722;2024-03-06T06:33:06;22.65;;;10.60;;
52894;SDS011;38759;53.396;6.722;2024-03-06T06:35:33;22.13;;;10.48;;
52894;SDS011;38759;53.396;6.722;2024-03-06T06:38:02;20.80;;;11.27;;
52894;SDS011;38759;53.396;6.722;2024-03-06T06:40:29;22.63;;;12.60;;
52894;SDS011;38759;53.396;6.722;2024-03-06T06:42:55;26.58;;;13.93;;
52894;SDS011;38759;53.396;6.722;2024-03-06T06:45:21;23.95;;;13.43;;
52894;SDS011;38759;53.396;6.722;2024-03-06T06:47:47;24.98;;;13.35;;
52894;SDS011;38759;53.396;6.722;2024-03-06T06:50:14;21.45;;;12.63;;
52894;SDS011;38759;53.396;6.722;2024-03-06T06:52:43;22.95;;;11.40;;
52894;SDS011;38759;53.396;6.722;2024-03-06T06:55:09;22.33;;;12.32;;
52894;SDS011;38759;53.396;6.722;2024-03-06T06:57:36;24.30;;;12.52;;
52894;SDS011;38759;53.396;6.722;2024-03-06T07:00:03;25.02;;;13.15;;
52894;SDS011;38759;53.396;6.722;2024-03-06T07:02:42;21.25;;;12.75;;
52894;SDS011;38759;53.396;6.722;2024-03-06T07:05:08;24.88;;;12.43;;
52894;SDS011;38759;53.396;6.722;2024-03-06T07:07:34;21.30;;;12.15;;
52894;SDS011;38759;53.396;6.722;2024-03-06T07:10:01;25.73;;;13.18;;
52894;SDS011;38759;53.396;6.722;2024-03-06T07:12:28;22.65;;;11.82;;
52894;SDS011;38759;53.396;6.722;2024-03-06T07:14:53;25.95;;;12.05;;
52894;SDS011;38759;53.396;6.722;2024-03-06T07:17:19;22.63;;;10.80;;
52894;SDS011;38759;53.396;6.722;2024-03-06T07:19:45;25.67;;;12.73;;
52894;SDS011;38759;53.396;6.722;2024-03-06T07:22:10;25.70;;;12.60;;
52894;SDS011;38759;53.396;6.722;2024-03-06T07:24:36;23.77;;;12.35;;
52894;SDS011;38759;53.396;6.722;2024-03-06T07:27:02;20.77;;;11.38;;
52894;SDS011;38759;53.396;6.722;2024-03-06T07:29:28;24.08;;;13.45;;
52894;SDS011;38759;53.396;6.722;2024-03-06T07:31:54;27.98;;;14.00;;
52894;SDS011;38759;53.396;6.722;2024-03-06T07:34:19;26.27;;;12.55;;
52894;SDS011;38759;53.396;6.722;2024-03-06T07:36:48;25.02;;;12.93;;
52894;SDS011;38759;53.396;6.722;2024-03-06T07:39:18;22.85;;;13.25;;
52894;SDS011;38759;53.396;6.722;2024-03-06T07:41:47;26.40;;;13.02;;
52894;SDS011;38759;53.396;6.722;2024-03-06T07:44:13;28.40;;;13.38;;
52894;SDS011;38759;53.396;6.722;2024-03-06T07:46:39;26.77;;;13.23;;
52894;SDS011;38759;53.396;6.722;2024-03-06T07:49:05;30.35;;;14.02;;
52894;SDS011;38759;53.396;6.722;2024-03-06T07:51:30;23.92;;;13.48;;
52894;SDS011;38759;53.396;6.722;2024-03-06T07:53:59;25.50;;;14.43;;
52894;SDS011;38759;53.396;6.722;2024-03-06T07:56:25;28.92;;;13.65;;
52894;SDS011;38759;53.396;6.722;2024-03-06T07:58:52;25.15;;;13.25;;
52894;SDS011;38759;53.396;6.722;2024-03-06T08:01:18;27.13;;;13.10;;
52894;SDS011;38759;53.396;6.722;2024-03-06T08:03:44;25.85;;;13.70;;
52894;SDS011;38759;53.396;6.722;2024-03-06T08:06:10;29.50;;;14.20;;
52894;SDS011;38759;53.396;6.722;2024-03-06T08:08:36;28.27;;;14.00;;
52894;SDS011;38759;53.396;6.722;2024-03-06T08:11:12;28.92;;;13.75;;
52894;SDS011;38759;53.396;6.722;2024-03-06T08:13:38;28.90;;;12.60;;
52894;SDS011;38759;53.396;6.722;2024-03-06T08:16:05;27.00;;;12.38;;
52894;SDS011;38759;53.396;6.722;2024-03-06T08:18:32;21.75;;;12.25;;
52894;SDS011;38759;53.396;6.722;2024-03-06T08:20:58;23.02;;;12.45;;
52894;SDS011;38759;53.396;6.722;2024-03-06T08:23:24;28.95;;;12.95;;
52894;SDS011;38759;53.396;6.722;2024-03-06T08:25:50;23.42;;;12.90;;
52894;SDS011;38759;53.396;6.722;2024-03-06T08:28:16;28.83;;;13.38;;
52894;SDS011;38759;53.396;6.722;2024-03-06T08:30:42;28.67;;;12.13;;
52894;SDS011;38759;53.396;6.722;2024-03-06T08:33:09;26.23;;;14.45;;
52894;SDS011;38759;53.396;6.722;2024-03-06T08:35:35;34.65;;;15.50;;
52894;SDS011;38759;53.396;6.722;2024-03-06T08:38:00;27.63;;;13.82;;
52894;SDS011;38759;53.396;6.722;2024-03-06T08:40:26;29.40;;;14.95;;
52894;SDS011;38759;53.396;6.722;2024-03-06T08:42:53;27.55;;;14.82;;
52894;SDS011;38759;53.396;6.722;2024-03-06T08:45:19;29.10;;;13.95;;
52894;SDS011;38759;53.396;6.722;2024-03-06T08:47:46;28.55;;;15.20;;
52894;SDS011;38759;53.396;6.722;2024-03-06T08:50:12;25.65;;;13.23;;
52894;SDS011;38759;53.396;6.722;2024-03-06T08:52:38;29.75;;;14.32;;
52894;SDS011;38759;53.396;6.722;2024-03-06T08:55:04;28.25;;;13.52;;
52894;SDS011;38759;53.396;6.722;2024-03-06T08:57:34;27.60;;;12.85;;
52894;SDS011;38759;53.396;6.722;2024-03-06T09:00:00;27.17;;;12.63;;
52894;SDS011;38759;53.396;6.722;2024-03-06T09:02:26;29.80;;;14.15;;
52894;SDS011;38759;53.396;6.722;2024-03-06T09:04:52;30.40;;;14.45;;
52894;SDS011;38759;53.396;6.722;2024-03-06T09:07:18;27.92;;;13.35;;
52894;SDS011;38759;53.396;6.722;2024-03-06T09:09:45;27.73;;;13.13;;
52894;SDS011;38759;53.396;6.722;2024-03-06T09:12:11;23.90;;;12.95;;
52894;SDS011;38759;53.396;6.722;2024-03-06T09:14:37;22.23;;;12.85;;
52894;SDS011;38759;53.396;6.722;2024-03-06T09:17:04;27.60;;;13.95;;
52894;SDS011;38759;53.396;6.722;2024-03-06T09:19:30;26.65;;;13.05;;
52894;SDS011;38759;53.396;6.722;2024-03-06T09:21:57;29.75;;;14.40;;
52894;SDS011;38759;53.396;6.722;2024-03-06T09:24:24;29.20;;;15.05;;
52894;SDS011;38759;53.396;6.722;2024-03-06T09:26:50;27.58;;;14.50;;
52894;SDS011;38759;53.396;6.722;2024-03-06T09:29:19;28.35;;;14.68;;
52894;SDS011;38759;53.396;6.722;2024-03-06T09:31:45;27.10;;;14.00;;
52894;SDS011;38759;53.396;6.722;2024-03-06T09:34:13;31.05;;;13.65;;
52894;SDS011;38759;53.396;6.722;2024-03-06T09:36:39;26.15;;;13.18;;
52894;SDS011;38759;53.396;6.722;2024-03-06T09:39:12;32.50;;;13.55;;
52894;SDS011;38759;53.396;6.722;2024-03-06T09:41:45;26.52;;;12.02;;
52894;SDS011;38759;53.396;6.722;2024-03-06T09:44:11;29.70;;;13.68;;
52894;SDS011;38759;53.396;6.722;2024-03-06T09:46:40;29.58;;;14.73;;
52894;SDS011;38759;53.396;6.722;2024-03-06T09:49:09;27.30;;;14.82;;
52894;SDS011;38759;53.396;6.722;2024-03-06T09:51:37;28.25;;;13.60;;
52894;SDS011;38759;53.396;6.722;2024-03-06T09:54:07;26.15;;;13.55;;
52894;SDS011;38759;53.396;6.722;2024-03-06T09:56:34;29.48;;;15.77;;
52894;SDS011;38759;53.396;6.722;2024-03-06T09:59:00;36.50;;;15.00;;
52894;SDS011;38759;53.396;6.722;2024-03-06T10:01:26;25.95;;;14.75;;
52894;SDS011;38759;53.396;6.722;2024-03-06T10:03:54;29.90;;;13.63;;
52894;SDS011;38759;53.396;6.722;2024-03-06T10:06:19;27.83;;;13.75;;
52894;SDS011;38759;53.396;6.722;2024-03-06T10:08:45;24.10;;;13.05;;
52894;SDS011;38759;53.396;6.722;2024-03-06T10:11:17;29.23;;;11.98;;
52894;SDS011;38759;53.396;6.722;2024-03-06T10:13:43;29.10;;;15.23;;
52894;SDS011;38759;53.396;6.722;2024-03-06T10:16:09;29.15;;;15.35;;
52894;SDS011;38759;53.396;6.722;2024-03-06T10:18:36;28.13;;;13.70;;
52894;SDS011;38759;53.396;6.722;2024-03-06T10:21:04;25.45;;;14.50;;
52894;SDS011;38759;53.396;6.722;2024-03-06T10:23:30;27.98;;;14.75;;
52894;SDS011;38759;53.396;6.722;2024-03-06T10:25:56;25.27;;;13.90;;
52894;SDS011;38759;53.396;6.722;2024-03-06T10:28:23;24.75;;;13.85;;
52894;SDS011;38759;53.396;6.722;2024-03-06T10:30:49;27.10;;;15.10;;
52894;SDS011;38759;53.396;6.722;2024-03-06T10:33:17;28.90;;;14.85;;
52894;SDS011;38759;53.396;6.722;2024-03-06T10:35:47;25.33;;;14.20;;
52894;SDS011;38759;53.396;6.722;2024-03-06T10:38:13;28.58;;;14.48;;
52894;SDS011;38759;53.396;6.722;2024-03-06T10:40:40;26.15;;;14.25;;
52894;SDS011;38759;53.396;6.722;2024-03-06T10:43:07;28.75;;;13.48;;
52894;SDS011;38759;53.396;6.722;2024-03-06T10:48:07;27.13;;;13.23;;
52894;SDS011;38759;53.396;6.722;2024-03-06T10:50:38;25.00;;;12.68;;
52894;SDS011;38759;53.396;6.722;2024-03-06T10:53:14;29.13;;;13.93;;
52894;SDS011;38759;53.396;6.722;2024-03-06T10:55:44;26.88;;;13.55;;
52894;SDS011;38759;53.396;6.722;2024-03-06T10:58:10;25.65;;;11.93;;
52894;SDS011;38759;53.396;6.722;2024-03-06T11:00:41;31.33;;;15.10;;
52894;SDS011;38759;53.396;6.722;2024-03-06T11:03:09;32.03;;;14.70;;
52894;SDS011;38759;53.396;6.722;2024-03-06T11:05:39;31.95;;;16.38;;
52894;SDS011;38759;53.396;6.722;2024-03-06T11:08:09;34.38;;;14.95;;
52894;SDS011;38759;53.396;6.722;2024-03-06T11:10:37;31.42;;;16.30;;
52894;SDS011;38759;53.396;6.722;2024-03-06T11:15:57;34.38;;;17.05;;
52894;SDS011;38759;53.396;6.722;2024-03-06T11:23:34;36.97;;;16.90;;
52894;SDS011;38759;53.396;6.722;2024-03-06T11:28:33;37.85;;;15.43;;
52894;SDS011;38759;53.396;6.722;2024-03-06T11:31:03;34.40;;;15.25;;
52894;SDS011;38759;53.396;6.722;2024-03-06T11:38:55;34.97;;;16.05;;
52894;SDS011;38759;53.396;6.722;2024-03-06T11:41:29;37.72;;;16.15;;
52894;SDS011;38759;53.396;6.722;2024-03-06T11:43:58;35.92;;;16.50;;
52894;SDS011;38759;53.396;6.722;2024-03-06T11:49:16;42.58;;;19.65;;
52894;SDS011;38759;53.396;6.722;2024-03-06T11:51:45;40.63;;;19.95;;
52894;SDS011;38759;53.396;6.722;2024-03-06T11:54:12;39.42;;;18.58;;
52894;SDS011;38759;53.396;6.722;2024-03-06T11:56:42;39.38;;;17.52;;
52894;SDS011;38759;53.396;6.722;2024-03-06T11:59:10;48.20;;;21.13;;
52894;SDS011;38759;53.396;6.722;2024-03-06T12:01:40;41.85;;;18.63;;
52894;SDS011;38759;53.396;6.722;2024-03-06T12:04:06;47.30;;;19.00;;
52894;SDS011;38759;53.396;6.722;2024-03-06T12:06:32;42.55;;;18.42;;
52894;SDS011;38759;53.396;6.722;2024-03-06T12:08:58;38.08;;;18.55;;
52894;SDS011;38759;53.396;6.722;2024-03-06T12:11:25;38.72;;;17.58;;
52894;SDS011;38759;53.396;6.722;2024-03-06T12:13:51;45.25;;;18.40;;
52894;SDS011;38759;53.396;6.722;2024-03-06T12:16:17;45.88;;;21.77;;
52894;SDS011;38759;53.396;6.722;2024-03-06T12:18:43;46.22;;;20.92;;
52894;SDS011;38759;53.396;6.722;2024-03-06T12:21:12;41.05;;;18.58;;
52894;SDS011;38759;53.396;6.722;2024-03-06T12:23:41;45.75;;;19.58;;
52894;SDS011;38759;53.396;6.722;2024-03-06T12:26:07;42.08;;;21.73;;
52894;SDS011;38759;53.396;6.722;2024-03-06T12:28:35;39.65;;;20.35;;
52894;SDS011;38759;53.396;6.722;2024-03-06T12:31:04;41.45;;;21.38;;
52894;SDS011;38759;53.396;6.722;2024-03-06T12:33:33;52.38;;;21.33;;
52894;SDS011;38759;53.396;6.722;2024-03-06T12:36:02;39.67;;;20.35;;
52894;SDS011;38759;53.396;6.722;2024-03-06T12:38:30;48.75;;;20.30;;
52894;SDS011;38759;53.396;6.722;2024-03-06T12:40:56;40.78;;;20.27;;
52894;SDS011;38759;53.396;6.722;2024-03-06T12:43:22;46.55;;;21.30;;
52894;SDS011;38759;53.396;6.722;2024-03-06T12:45:50;41.33;;;22.23;;
52894;SDS011;38759;53.396;6.722;2024-03-06T12:48:19;36.03;;;19.67;;
52894;SDS011;38759;53.396;6.722;2024-03-06T12:50:46;41.85;;;19.85;;
52894;SDS011;38759;53.396;6.722;2024-03-06T12:53:16;38.22;;;19.40;;
52894;SDS011;38759;53.396;6.722;2024-03-06T12:55:45;39.28;;;19.30;;
52894;SDS011;38759;53.396;6.722;2024-03-06T12:58:12;40.03;;;22.08;;
52894;SDS011;38759;53.396;6.722;2024-03-06T13:00:38;41.08;;;19.85;;
52894;SDS011;38759;53.396;6.722;2024-03-06T13:03:04;36.60;;;19.65;;
52894;SDS011;38759;53.396;6.722;2024-03-06T13:05:31;40.95;;;19.73;;
52894;SDS011;38759;53.396;6.722;2024-03-06T13:07:56;42.95;;;21.25;;
52894;SDS011;38759;53.396;6.722;2024-03-06T13:10:22;41.50;;;19.65;;
52894;SDS011;38759;53.396;6.722;2024-03-06T13:12:48;39.47;;;18.77;;
52894;SDS011;38759;53.396;6.722;2024-03-06T13:15:14;37.88;;;17.80;;
52894;SDS011;38759;53.396;6.722;2024-03-06T13:17:39;35.90;;;17.88;;
52894;SDS011;38759;53.396;6.722;2024-03-06T13:20:06;34.55;;;17.00;;
52894;SDS011;38759;53.396;6.722;2024-03-06T13:22:37;37.22;;;19.67;;
52894;SDS011;38759;53.396;6.722;2024-03-06T13:25:03;38.97;;;20.38;;
52894;SDS011;38759;53.396;6.722;2024-03-06T13:27:30;43.05;;;21.10;;
52894;SDS011;38759;53.396;6.722;2024-03-06T13:29:56;40.92;;;21.02;;
52894;SDS011;38759;53.396;6.722;2024-03-06T13:32:21;46.50;;;22.33;;
52894;SDS011;38759;53.396;6.722;2024-03-06T13:34:47;42.92;;;20.58;;
52894;SDS011;38759;53.396;6.722;2024-03-06T13:37:14;34.10;;;18.45;;
52894;SDS011;38759;53.396;6.722;2024-03-06T13:39:40;42.90;;;19.75;;
52894;SDS011;38759;53.396;6.722;2024-03-06T13:42:06;38.45;;;19.13;;
52894;SDS011;38759;53.396;6.722;2024-03-06T13:44:33;42.72;;;19.52;;
52894;SDS011;38759;53.396;6.722;2024-03-06T13:47:02;41.72;;;21.23;;
52894;SDS011;38759;53.396;6.722;2024-03-06T13:54:35;42.92;;;22.02;;
52894;SDS011;38759;53.396;6.722;2024-03-06T13:57:03;44.70;;;22.42;;
52894;SDS011;38759;53.396;6.722;2024-03-06T13:59:30;41.47;;;20.92;;
52894;SDS011;38759;53.396;6.722;2024-03-06T14:01:56;41.35;;;21.00;;
52894;SDS011;38759;53.396;6.722;2024-03-06T14:04:24;40.88;;;20.60;;
52894;SDS011;38759;53.396;6.722;2024-03-06T14:06:50;37.95;;;21.50;;
52894;SDS011;38759;53.396;6.722;2024-03-06T14:09:15;38.05;;;19.38;;
52894;SDS011;38759;53.396;6.722;2024-03-06T14:11:41;41.28;;;22.65;;
52894;SDS011;38759;53.396;6.722;2024-03-06T14:14:07;42.60;;;22.52;;
52894;SDS011;38759;53.396;6.722;2024-03-06T14:16:34;36.75;;;19.10;;
52894;SDS011;38759;53.396;6.722;2024-03-06T14:18:59;40.10;;;21.20;;
52894;SDS011;38759;53.396;6.722;2024-03-06T14:21:26;40.00;;;20.13;;
52894;SDS011;38759;53.396;6.722;2024-03-06T14:23:51;62.05;;;25.08;;
52894;SDS011;38759;53.396;6.722;2024-03-06T14:26:17;37.90;;;19.58;;
52894;SDS011;38759;53.396;6.722;2024-03-06T14:28:43;40.88;;;19.58;;
52894;SDS011;38759;53.396;6.722;2024-03-06T14:31:09;37.08;;;19.33;;
52894;SDS011;38759;53.396;6.722;2024-03-06T14:33:40;37.72;;;23.45;;
52894;SDS011;38759;53.396;6.722;2024-03-06T14:36:07;35.97;;;19.58;;
52894;SDS011;38759;53.396;6.722;2024-03-06T14:38:32;33.78;;;18.45;;
52894;SDS011;38759;53.396;6.722;2024-03-06T14:40:58;35.70;;;20.45;;
52894;SDS011;38759;53.396;6.722;2024-03-06T14:43:24;40.58;;;19.70;;
52894;SDS011;38759;53.396;6.722;2024-03-06T14:45:51;35.60;;;19.98;;
52894;SDS011;38759;53.396;6.722;2024-03-06T14:48:17;39.97;;;21.42;;